sensor_id;sensor_type;location;lat;lon;timestamp;P1;durP1;ratioP1;P2;durP2;ratioP2
3726;SDS011;1879;45.876;12.300;2022-12-07T00:01:18;10.27;;;8.50;;
3726;SDS011;1879;45.876;12.300;2022-12-07T00:03:49;8.67;;;7.87;;
3726;SDS011;1879;45.876;12.300;2022-12-07T00:06:18;10.40;;;9.40;;
3726;SDS011;1879;45.876;12.300;2022-12-07T00:08:45;12.93;;;11.23;;
3726;SDS011;1879;45.876;12.300;2022-12-07T00:11:14;11.67;;;10.47;;
3726;SDS011;1879;45.876;12.300;2022-12-07T00:13:42;10.90;;;9.80;;
3726;SDS011;1879;45.876;12.300;2022-12-07T00:16:12;11.83;;;10.10;;
3726;SDS011;1879;45.876;12.300;2022-12-07T00:18:40;10.83;;;9.70;;
3726;SDS011;1879;45.876;12.300;2022-12-07T00:21:09;9.97;;;8.90;;
3726;SDS011;1879;45.876;12.300;2022-12-07T00:23:38;12.30;;;11.03;;
3726;SDS011;1879;45.876;12.300;2022-12-07T00:26:05;11.20;;;10.03;;
3726;SDS011;1879;45.876;12.300;2022-12-07T00:28:34;10.57;;;9.57;;
3726;SDS011;1879;45.876;12.300;2022-12-07T00:31:02;10.90;;;9.70;;
3726;SDS011;1879;45.876;12.300;2022-12-07T00:33:31;10.13;;;9.13;;
3726;SDS011;1879;45.876;12.300;2022-12-07T00:35:58;9.33;;;8.40;;
3726;SDS011;1879;45.876;12.300;2022-12-07T00:38:27;10.80;;;9.73;;
3726;SDS011;1879;45.876;12.300;2022-12-07T00:40:56;10.57;;;9.40;;
3726;SDS011;1879;45.876;12.300;2022-12-07T00:43:23;9.00;;;8.10;;
3726;SDS011;1879;45.876;12.300;2022-12-07T00:45:50;11.40;;;8.40;;
3726;SDS011;1879;45.876;12.300;2022-12-07T00:48:17;10.13;;;9.13;;
3726;SDS011;1879;45.876;12.300;2022-12-07T00:50:45;9.03;;;8.13;;
3726;SDS011;1879;45.876;12.300;2022-12-07T00:53:12;8.70;;;7.87;;
3726;SDS011;1879;45.876;12.300;2022-12-07T00:55:39;8.50;;;7.70;;
3726;SDS011;1879;45.876;12.300;2022-12-07T00:58:06;7.50;;;6.80;;
3726;SDS011;1879;45.876;12.300;2022-12-07T01:00:34;8.40;;;7.53;;
3726;SDS011;1879;45.876;12.300;2022-12-07T01:03:04;8.30;;;7.60;;
3726;SDS011;1879;45.876;12.300;2022-12-07T01:05:32;7.60;;;6.90;;
3726;SDS011;1879;45.876;12.300;2022-12-07T01:08:01;7.60;;;6.73;;
3726;SDS011;1879;45.876;12.300;2022-12-07T01:10:28;7.93;;;7.13;;
3726;SDS011;1879;45.876;12.300;2022-12-07T01:12:56;6.90;;;6.30;;
3726;SDS011;1879;45.876;12.300;2022-12-07T01:15:24;7.47;;;6.77;;
3726;SDS011;1879;45.876;12.300;2022-12-07T01:17:51;8.47;;;7.10;;
3726;SDS011;1879;45.876;12.300;2022-12-07T01:20:19;7.00;;;6.37;;
3726;SDS011;1879;45.876;12.300;2022-12-07T01:22:46;7.30;;;6.23;;
3726;SDS011;1879;45.876;12.300;2022-12-07T01:25:15;7.53;;;6.30;;
3726;SDS011;1879;45.876;12.300;2022-12-07T01:27:42;7.00;;;6.30;;
3726;SDS011;1879;45.876;12.300;2022-12-07T01:30:09;6.77;;;6.17;;
3726;SDS011;1879;45.876;12.300;2022-12-07T01:32:37;6.93;;;6.23;;
3726;SDS011;1879;45.876;12.300;2022-12-07T01:35:04;7.37;;;6.70;;
3726;SDS011;1879;45.876;12.300;2022-12-07T01:37:33;7.93;;;6.47;;
3726;SDS011;1879;45.876;12.300;2022-12-07T01:40:02;8.27;;;6.53;;
3726;SDS011;1879;45.876;12.300;2022-12-07T01:42:31;8.00;;;6.60;;
3726;SDS011;1879;45.876;12.300;2022-12-07T01:48:02;6.93;;;6.33;;
3726;SDS011;1879;45.876;12.300;2022-12-07T01:50:31;7.00;;;5.60;;
3726;SDS011;1879;45.876;12.300;2022-12-07T01:52:58;6.03;;;5.47;;
3726;SDS011;1879;45.876;12.300;2022-12-07T01:55:28;6.43;;;5.80;;
3726;SDS011;1879;45.876;12.300;2022-12-07T01:57:57;6.50;;;5.23;;
3726;SDS011;1879;45.876;12.300;2022-12-07T02:00:24;6.10;;;5.50;;
3726;SDS011;1879;45.876;12.300;2022-12-07T02:02:52;8.00;;;5.60;;
3726;SDS011;1879;45.876;12.300;2022-12-07T02:05:22;5.30;;;4.90;;
3726;SDS011;1879;45.876;12.300;2022-12-07T02:07:50;6.23;;;5.63;;
3726;SDS011;1879;45.876;12.300;2022-12-07T02:10:20;5.43;;;4.93;;
3726;SDS011;1879;45.876;12.300;2022-12-07T02:12:49;6.07;;;5.47;;
3726;SDS011;1879;45.876;12.300;2022-12-07T02:15:22;5.43;;;4.70;;
3726;SDS011;1879;45.876;12.300;2022-12-07T02:17:57;5.47;;;4.97;;
3726;SDS011;1879;45.876;12.300;2022-12-07T02:20:32;5.80;;;5.27;;
3726;SDS011;1879;45.876;12.300;2022-12-07T02:23:16;5.80;;;5.30;;
3726;SDS011;1879;45.876;12.300;2022-12-07T02:29:24;5.60;;;4.60;;
3726;SDS011;1879;45.876;12.300;2022-12-07T02:31:56;6.00;;;5.40;;
3726;SDS011;1879;45.876;12.300;2022-12-07T02:34:34;5.40;;;4.90;;
3726;SDS011;1879;45.876;12.300;2022-12-07T02:37:09;5.00;;;4.50;;
3726;SDS011;1879;45.876;12.300;2022-12-07T02:39:42;7.20;;;4.97;;
3726;SDS011;1879;45.876;12.300;2022-12-07T02:42:14;4.53;;;4.13;;
3726;SDS011;1879;45.876;12.300;2022-12-07T02:44:45;4.70;;;4.30;;
3726;SDS011;1879;45.876;12.300;2022-12-07T02:47:14;5.20;;;4.47;;
3726;SDS011;1879;45.876;12.300;2022-12-07T02:49:43;5.07;;;4.67;;
3726;SDS011;1879;45.876;12.300;2022-12-07T02:52:11;5.17;;;4.50;;
3726;SDS011;1879;45.876;12.300;2022-12-07T02:54:38;5.27;;;4.67;;
3726;SDS011;1879;45.876;12.300;2022-12-07T02:57:09;4.53;;;4.13;;
3726;SDS011;1879;45.876;12.300;2022-12-07T02:59:53;5.47;;;4.97;;
3726;SDS011;1879;45.876;12.300;2022-12-07T03:02:30;5.10;;;4.70;;
3726;SDS011;1879;45.876;12.300;2022-12-07T03:05:18;5.20;;;4.70;;
3726;SDS011;1879;45.876;12.300;2022-12-07T03:07:58;4.60;;;4.20;;
3726;SDS011;1879;45.876;12.300;2022-12-07T03:10:32;4.63;;;4.23;;
3726;SDS011;1879;45.876;12.300;2022-12-07T03:13:08;4.73;;;4.27;;
3726;SDS011;1879;45.876;12.300;2022-12-07T03:15:44;5.00;;;4.60;;
3726;SDS011;1879;45.876;12.300;2022-12-07T03:18:16;5.47;;;5.07;;
3726;SDS011;1879;45.876;12.300;2022-12-07T03:20:46;4.67;;;4.13;;
3726;SDS011;1879;45.876;12.300;2022-12-07T03:23:17;5.07;;;4.10;;
3726;SDS011;1879;45.876;12.300;2022-12-07T03:25:46;5.03;;;4.47;;
3726;SDS011;1879;45.876;12.300;2022-12-07T03:28:15;5.17;;;4.67;;
3726;SDS011;1879;45.876;12.300;2022-12-07T03:30:47;5.23;;;4.70;;
3726;SDS011;1879;45.876;12.300;2022-12-07T03:33:20;4.90;;;4.50;;
3726;SDS011;1879;45.876;12.300;2022-12-07T03:35:52;5.33;;;4.93;;
3726;SDS011;1879;45.876;12.300;2022-12-07T03:38:27;4.97;;;4.37;;
3726;SDS011;1879;45.876;12.300;2022-12-07T03:40:59;5.30;;;4.80;;
3726;SDS011;1879;45.876;12.300;2022-12-07T03:43:31;5.23;;;4.70;;
3726;SDS011;1879;45.876;12.300;2022-12-07T03:46:00;5.83;;;4.40;;
3726;SDS011;1879;45.876;12.300;2022-12-07T03:48:37;5.70;;;5.20;;
3726;SDS011;1879;45.876;12.300;2022-12-07T03:51:08;6.27;;;5.30;;
3726;SDS011;1879;45.876;12.300;2022-12-07T03:53:42;4.63;;;4.23;;
3726;SDS011;1879;45.876;12.300;2022-12-07T03:56:12;4.90;;;4.50;;
3726;SDS011;1879;45.876;12.300;2022-12-07T03:58:40;4.57;;;4.13;;
3726;SDS011;1879;45.876;12.300;2022-12-07T04:01:10;4.93;;;4.43;;
3726;SDS011;1879;45.876;12.300;2022-12-07T04:03:37;4.93;;;4.43;;
3726;SDS011;1879;45.876;12.300;2022-12-07T04:06:04;4.73;;;3.80;;
3726;SDS011;1879;45.876;12.300;2022-12-07T04:08:31;5.23;;;4.80;;
3726;SDS011;1879;45.876;12.300;2022-12-07T04:10:58;4.77;;;4.37;;
3726;SDS011;1879;45.876;12.300;2022-12-07T04:13:25;4.20;;;3.80;;
3726;SDS011;1879;45.876;12.300;2022-12-07T04:15:52;4.50;;;4.17;;
3726;SDS011;1879;45.876;12.300;2022-12-07T04:18:20;4.90;;;4.50;;
3726;SDS011;1879;45.876;12.300;2022-12-07T04:20:47;6.47;;;3.90;;
3726;SDS011;1879;45.876;12.300;2022-12-07T04:23:15;4.63;;;3.83;;
3726;SDS011;1879;45.876;12.300;2022-12-07T04:25:41;4.50;;;4.10;;
3726;SDS011;1879;45.876;12.300;2022-12-07T04:28:08;4.30;;;3.90;;
3726;SDS011;1879;45.876;12.300;2022-12-07T04:30:35;4.03;;;3.73;;
3726;SDS011;1879;45.876;12.300;2022-12-07T04:33:02;4.10;;;3.70;;
3726;SDS011;1879;45.876;12.300;2022-12-07T04:35:31;4.80;;;4.40;;
3726;SDS011;1879;45.876;12.300;2022-12-07T04:37:58;4.00;;;3.67;;
3726;SDS011;1879;45.876;12.300;2022-12-07T04:40:24;5.20;;;4.00;;
3726;SDS011;1879;45.876;12.300;2022-12-07T04:42:51;4.03;;;3.73;;
3726;SDS011;1879;45.876;12.300;2022-12-07T04:45:18;4.20;;;3.73;;
3726;SDS011;1879;45.876;12.300;2022-12-07T04:47:47;6.07;;;4.60;;
3726;SDS011;1879;45.876;12.300;2022-12-07T04:50:14;4.33;;;3.80;;
3726;SDS011;1879;45.876;12.300;2022-12-07T04:52:43;4.20;;;3.80;;
3726;SDS011;1879;45.876;12.300;2022-12-07T04:55:09;4.07;;;3.70;;
3726;SDS011;1879;45.876;12.300;2022-12-07T04:57:36;4.40;;;4.00;;
3726;SDS011;1879;45.876;12.300;2022-12-07T05:00:04;3.63;;;3.33;;
3726;SDS011;1879;45.876;12.300;2022-12-07T05:02:32;6.70;;;4.40;;
3726;SDS011;1879;45.876;12.300;2022-12-07T05:04:59;4.13;;;3.83;;
3726;SDS011;1879;45.876;12.300;2022-12-07T05:07:28;4.47;;;4.13;;
3726;SDS011;1879;45.876;12.300;2022-12-07T05:09:56;5.07;;;4.57;;
3726;SDS011;1879;45.876;12.300;2022-12-07T05:12:23;5.13;;;4.63;;
3726;SDS011;1879;45.876;12.300;2022-12-07T05:14:53;6.57;;;4.70;;
3726;SDS011;1879;45.876;12.300;2022-12-07T05:17:19;4.50;;;4.10;;
3726;SDS011;1879;45.876;12.300;2022-12-07T05:19:46;4.90;;;4.40;;
3726;SDS011;1879;45.876;12.300;2022-12-07T05:22:13;4.67;;;4.27;;
3726;SDS011;1879;45.876;12.300;2022-12-07T05:24:40;4.30;;;3.90;;
3726;SDS011;1879;45.876;12.300;2022-12-07T05:27:09;5.00;;;4.60;;
3726;SDS011;1879;45.876;12.300;2022-12-07T05:29:36;5.23;;;4.80;;
3726;SDS011;1879;45.876;12.300;2022-12-07T05:32:03;5.43;;;4.73;;
3726;SDS011;1879;45.876;12.300;2022-12-07T05:34:30;5.53;;;4.93;;
3726;SDS011;1879;45.876;12.300;2022-12-07T05:36:57;8.23;;;5.00;;
3726;SDS011;1879;45.876;12.300;2022-12-07T05:39:24;5.53;;;5.00;;
3726;SDS011;1879;45.876;12.300;2022-12-07T05:41:51;5.80;;;5.20;;
3726;SDS011;1879;45.876;12.300;2022-12-07T05:44:36;7.47;;;5.70;;
3726;SDS011;1879;45.876;12.300;2022-12-07T05:47:03;8.00;;;6.53;;
3726;SDS011;1879;45.876;12.300;2022-12-07T05:49:30;8.77;;;7.87;;
3726;SDS011;1879;45.876;12.300;2022-12-07T05:51:57;8.13;;;7.33;;
3726;SDS011;1879;45.876;12.300;2022-12-07T05:54:24;7.83;;;7.10;;
3726;SDS011;1879;45.876;12.300;2022-12-07T05:56:51;7.53;;;6.63;;
3726;SDS011;1879;45.876;12.300;2022-12-07T05:59:18;8.50;;;7.70;;
3726;SDS011;1879;45.876;12.300;2022-12-07T06:01:54;8.10;;;7.40;;
3726;SDS011;1879;45.876;12.300;2022-12-07T06:04:22;8.50;;;7.70;;
3726;SDS011;1879;45.876;12.300;2022-12-07T06:06:51;7.60;;;6.90;;
3726;SDS011;1879;45.876;12.300;2022-12-07T06:09:18;8.60;;;7.40;;
3726;SDS011;1879;45.876;12.300;2022-12-07T06:11:46;8.30;;;7.60;;
3726;SDS011;1879;45.876;12.300;2022-12-07T06:14:31;8.77;;;7.97;;
3726;SDS011;1879;45.876;12.300;2022-12-07T06:16:59;8.10;;;7.30;;
3726;SDS011;1879;45.876;12.300;2022-12-07T06:19:27;12.47;;;11.17;;
3726;SDS011;1879;45.876;12.300;2022-12-07T06:21:54;9.17;;;8.37;;
3726;SDS011;1879;45.876;12.300;2022-12-07T06:24:21;10.20;;;9.20;;
3726;SDS011;1879;45.876;12.300;2022-12-07T06:26:48;12.63;;;10.70;;
3726;SDS011;1879;45.876;12.300;2022-12-07T06:29:16;17.13;;;15.43;;
3726;SDS011;1879;45.876;12.300;2022-12-07T06:31:43;25.17;;;20.67;;
3726;SDS011;1879;45.876;12.300;2022-12-07T06:34:13;30.03;;;26.77;;
3726;SDS011;1879;45.876;12.300;2022-12-07T06:36:41;25.70;;;22.87;;
3726;SDS011;1879;45.876;12.300;2022-12-07T06:39:08;21.43;;;19.07;;
3726;SDS011;1879;45.876;12.300;2022-12-07T06:41:35;18.00;;;16.20;;
3726;SDS011;1879;45.876;12.300;2022-12-07T06:44:06;17.40;;;15.50;;
3726;SDS011;1879;45.876;12.300;2022-12-07T06:46:33;11.80;;;10.60;;
3726;SDS011;1879;45.876;12.300;2022-12-07T06:49:01;13.73;;;11.33;;
3726;SDS011;1879;45.876;12.300;2022-12-07T06:51:30;14.93;;;11.47;;
3726;SDS011;1879;45.876;12.300;2022-12-07T06:53:57;15.77;;;13.67;;
3726;SDS011;1879;45.876;12.300;2022-12-07T06:56:24;21.33;;;17.47;;
3726;SDS011;1879;45.876;12.300;2022-12-07T06:58:51;18.37;;;15.57;;
3726;SDS011;1879;45.876;12.300;2022-12-07T07:01:18;16.63;;;15.03;;
3726;SDS011;1879;45.876;12.300;2022-12-07T07:03:46;38.40;;;23.83;;
3726;SDS011;1879;45.876;12.300;2022-12-07T07:06:14;26.00;;;20.27;;
3726;SDS011;1879;45.876;12.300;2022-12-07T07:08:42;33.07;;;22.70;;
3726;SDS011;1879;45.876;12.300;2022-12-07T07:11:11;33.10;;;21.30;;
3726;SDS011;1879;45.876;12.300;2022-12-07T07:13:38;54.97;;;34.13;;
3726;SDS011;1879;45.876;12.300;2022-12-07T07:16:06;17.00;;;14.60;;
3726;SDS011;1879;45.876;12.300;2022-12-07T07:18:34;246.73;;;101.77;;
3726;SDS011;1879;45.876;12.300;2022-12-07T07:21:01;66.83;;;39.00;;
3726;SDS011;1879;45.876;12.300;2022-12-07T07:23:29;23.80;;;21.30;;
3726;SDS011;1879;45.876;12.300;2022-12-07T07:25:57;19.73;;;17.83;;
3726;SDS011;1879;45.876;12.300;2022-12-07T07:28:24;21.37;;;19.37;;
3726;SDS011;1879;45.876;12.300;2022-12-07T07:30:51;12.20;;;10.93;;
3726;SDS011;1879;45.876;12.300;2022-12-07T07:33:18;10.97;;;9.97;;
3726;SDS011;1879;45.876;12.300;2022-12-07T07:35:45;11.27;;;10.17;;
3726;SDS011;1879;45.876;12.300;2022-12-07T07:38:12;10.47;;;9.47;;
3726;SDS011;1879;45.876;12.300;2022-12-07T07:40:39;11.93;;;10.73;;
3726;SDS011;1879;45.876;12.300;2022-12-07T07:43:08;13.87;;;10.77;;
3726;SDS011;1879;45.876;12.300;2022-12-07T07:45:35;12.10;;;10.90;;
3726;SDS011;1879;45.876;12.300;2022-12-07T07:48:02;11.27;;;10.17;;
3726;SDS011;1879;45.876;12.300;2022-12-07T07:50:29;14.03;;;12.73;;
3726;SDS011;1879;45.876;12.300;2022-12-07T07:52:56;18.47;;;13.00;;
3726;SDS011;1879;45.876;12.300;2022-12-07T07:55:24;14.33;;;12.90;;
3726;SDS011;1879;45.876;12.300;2022-12-07T07:57:51;13.87;;;12.10;;
3726;SDS011;1879;45.876;12.300;2022-12-07T08:00:19;15.60;;;12.90;;
3726;SDS011;1879;45.876;12.300;2022-12-07T08:02:47;13.67;;;12.27;;
3726;SDS011;1879;45.876;12.300;2022-12-07T08:05:14;15.20;;;12.83;;
3726;SDS011;1879;45.876;12.300;2022-12-07T08:07:41;13.40;;;12.10;;
3726;SDS011;1879;45.876;12.300;2022-12-07T08:10:11;15.13;;;12.27;;
3726;SDS011;1879;45.876;12.300;2022-12-07T08:12:39;14.10;;;12.70;;
3726;SDS011;1879;45.876;12.300;2022-12-07T08:15:23;15.40;;;10.80;;
3726;SDS011;1879;45.876;12.300;2022-12-07T08:17:51;10.80;;;8.77;;
3726;SDS011;1879;45.876;12.300;2022-12-07T08:20:18;10.30;;;9.30;;
3726;SDS011;1879;45.876;12.300;2022-12-07T08:22:45;15.40;;;13.80;;
3726;SDS011;1879;45.876;12.300;2022-12-07T08:25:12;15.70;;;14.27;;
3726;SDS011;1879;45.876;12.300;2022-12-07T08:27:39;17.80;;;15.73;;
3726;SDS011;1879;45.876;12.300;2022-12-07T08:30:07;11.40;;;9.90;;
3726;SDS011;1879;45.876;12.300;2022-12-07T08:32:36;17.10;;;13.97;;
3726;SDS011;1879;45.876;12.300;2022-12-07T08:35:03;15.30;;;11.90;;
3726;SDS011;1879;45.876;12.300;2022-12-07T08:37:31;15.10;;;10.90;;
3726;SDS011;1879;45.876;12.300;2022-12-07T08:39:58;10.27;;;9.27;;
3726;SDS011;1879;45.876;12.300;2022-12-07T08:42:25;12.47;;;7.83;;
3726;SDS011;1879;45.876;12.300;2022-12-07T08:44:54;9.33;;;8.53;;
3726;SDS011;1879;45.876;12.300;2022-12-07T08:47:22;7.83;;;7.03;;
3726;SDS011;1879;45.876;12.300;2022-12-07T08:49:52;7.60;;;6.90;;
3726;SDS011;1879;45.876;12.300;2022-12-07T08:52:20;7.87;;;7.10;;
3726;SDS011;1879;45.876;12.300;2022-12-07T08:54:47;7.90;;;7.10;;
3726;SDS011;1879;45.876;12.300;2022-12-07T08:57:14;20.23;;;14.67;;
3726;SDS011;1879;45.876;12.300;2022-12-07T08:59:41;10.70;;;9.20;;
3726;SDS011;1879;45.876;12.300;2022-12-07T09:02:08;12.30;;;8.23;;
3726;SDS011;1879;45.876;12.300;2022-12-07T09:04:35;14.10;;;9.10;;
3726;SDS011;1879;45.876;12.300;2022-12-07T09:07:04;18.17;;;13.60;;
3726;SDS011;1879;45.876;12.300;2022-12-07T09:09:31;15.67;;;12.73;;
3726;SDS011;1879;45.876;12.300;2022-12-07T09:11:58;8.70;;;6.80;;
3726;SDS011;1879;45.876;12.300;2022-12-07T09:14:25;10.93;;;7.37;;
3726;SDS011;1879;45.876;12.300;2022-12-07T09:16:52;5.30;;;4.80;;
3726;SDS011;1879;45.876;12.300;2022-12-07T09:19:19;4.97;;;4.47;;
3726;SDS011;1879;45.876;12.300;2022-12-07T09:21:46;6.60;;;5.13;;
3726;SDS011;1879;45.876;12.300;2022-12-07T09:24:14;5.03;;;4.47;;
3726;SDS011;1879;45.876;12.300;2022-12-07T09:26:41;4.23;;;3.83;;
3726;SDS011;1879;45.876;12.300;2022-12-07T09:29:09;5.80;;;4.20;;
3726;SDS011;1879;45.876;12.300;2022-12-07T09:31:36;5.97;;;4.47;;
3726;SDS011;1879;45.876;12.300;2022-12-07T09:34:04;6.20;;;5.03;;
3726;SDS011;1879;45.876;12.300;2022-12-07T09:36:32;6.47;;;5.10;;
3726;SDS011;1879;45.876;12.300;2022-12-07T09:38:59;7.30;;;5.90;;
3726;SDS011;1879;45.876;12.300;2022-12-07T09:41:27;6.27;;;5.73;;
3726;SDS011;1879;45.876;12.300;2022-12-07T09:43:58;6.93;;;6.33;;
3726;SDS011;1879;45.876;12.300;2022-12-07T09:46:30;6.47;;;5.60;;
3726;SDS011;1879;45.876;12.300;2022-12-07T09:49:02;6.37;;;5.77;;
3726;SDS011;1879;45.876;12.300;2022-12-07T09:51:29;7.30;;;5.57;;
3726;SDS011;1879;45.876;12.300;2022-12-07T09:53:57;9.37;;;4.93;;
3726;SDS011;1879;45.876;12.300;2022-12-07T09:56:25;5.90;;;5.30;;
3726;SDS011;1879;45.876;12.300;2022-12-07T09:58:58;5.73;;;4.40;;
3726;SDS011;1879;45.876;12.300;2022-12-07T10:01:27;5.17;;;4.67;;
3726;SDS011;1879;45.876;12.300;2022-12-07T10:03:58;5.87;;;4.90;;
3726;SDS011;1879;45.876;12.300;2022-12-07T10:06:28;5.37;;;4.57;;
3726;SDS011;1879;45.876;12.300;2022-12-07T10:08:55;4.60;;;4.10;;
3726;SDS011;1879;45.876;12.300;2022-12-07T10:11:22;4.60;;;4.20;;
3726;SDS011;1879;45.876;12.300;2022-12-07T10:13:51;4.50;;;3.70;;
3726;SDS011;1879;45.876;12.300;2022-12-07T10:16:38;4.17;;;3.80;;
3726;SDS011;1879;45.876;12.300;2022-12-07T10:19:21;4.53;;;4.00;;
3726;SDS011;1879;45.876;12.300;2022-12-07T10:22:00;3.73;;;3.43;;
3726;SDS011;1879;45.876;12.300;2022-12-07T10:24:35;4.00;;;3.70;;
3726;SDS011;1879;45.876;12.300;2022-12-07T10:27:09;5.77;;;4.07;;
3726;SDS011;1879;45.876;12.300;2022-12-07T10:29:48;4.27;;;3.90;;
3726;SDS011;1879;45.876;12.300;2022-12-07T10:32:30;3.37;;;3.07;;
3726;SDS011;1879;45.876;12.300;2022-12-07T10:35:18;3.60;;;3.30;;
3726;SDS011;1879;45.876;12.300;2022-12-07T10:37:47;3.60;;;3.30;;
3726;SDS011;1879;45.876;12.300;2022-12-07T10:40:29;3.63;;;2.97;;
3726;SDS011;1879;45.876;12.300;2022-12-07T10:43:03;3.40;;;3.10;;
3726;SDS011;1879;45.876;12.300;2022-12-07T10:45:34;3.13;;;2.33;;
3726;SDS011;1879;45.876;12.300;2022-12-07T10:48:09;2.60;;;2.40;;
3726;SDS011;1879;45.876;12.300;2022-12-07T10:50:56;2.97;;;2.70;;
3726;SDS011;1879;45.876;12.300;2022-12-07T10:53:41;3.53;;;3.23;;
3726;SDS011;1879;45.876;12.300;2022-12-07T10:59:22;3.20;;;3.00;;
3726;SDS011;1879;45.876;12.300;2022-12-07T11:02:06;3.53;;;3.30;;
3726;SDS011;1879;45.876;12.300;2022-12-07T11:04:50;2.93;;;2.63;;
3726;SDS011;1879;45.876;12.300;2022-12-07T11:07:30;3.50;;;3.23;;
3726;SDS011;1879;45.876;12.300;2022-12-07T11:10:05;5.60;;;3.43;;
3726;SDS011;1879;45.876;12.300;2022-12-07T11:12:47;3.83;;;3.40;;
3726;SDS011;1879;45.876;12.300;2022-12-07T11:15:24;4.23;;;3.93;;
3726;SDS011;1879;45.876;12.300;2022-12-07T11:17:58;4.90;;;4.40;;
3726;SDS011;1879;45.876;12.300;2022-12-07T11:20:35;5.53;;;4.43;;
3726;SDS011;1879;45.876;12.300;2022-12-07T11:23:12;4.73;;;4.30;;
3726;SDS011;1879;45.876;12.300;2022-12-07T11:25:46;4.07;;;3.77;;
3726;SDS011;1879;45.876;12.300;2022-12-07T11:28:25;4.33;;;3.77;;
3726;SDS011;1879;45.876;12.300;2022-12-07T11:31:08;4.50;;;4.10;;
3726;SDS011;1879;45.876;12.300;2022-12-07T11:33:45;3.90;;;3.60;;
3726;SDS011;1879;45.876;12.300;2022-12-07T11:36:19;4.13;;;3.83;;
3726;SDS011;1879;45.876;12.300;2022-12-07T11:38:58;4.30;;;3.90;;
3726;SDS011;1879;45.876;12.300;2022-12-07T11:41:28;4.33;;;3.80;;
3726;SDS011;1879;45.876;12.300;2022-12-07T11:44:00;5.20;;;4.70;;
3726;SDS011;1879;45.876;12.300;2022-12-07T11:46:35;5.10;;;4.07;;
3726;SDS011;1879;45.876;12.300;2022-12-07T11:49:14;3.80;;;3.50;;
3726;SDS011;1879;45.876;12.300;2022-12-07T11:51:47;3.27;;;2.97;;
3726;SDS011;1879;45.876;12.300;2022-12-07T11:54:19;2.87;;;2.67;;
3726;SDS011;1879;45.876;12.300;2022-12-07T11:56:50;3.00;;;2.80;;
3726;SDS011;1879;45.876;12.300;2022-12-07T11:59:22;2.90;;;2.60;;
3726;SDS011;1879;45.876;12.300;2022-12-07T12:01:56;3.27;;;2.90;;
3726;SDS011;1879;45.876;12.300;2022-12-07T12:04:30;3.00;;;2.80;;
3726;SDS011;1879;45.876;12.300;2022-12-07T12:07:03;2.90;;;2.70;;
3726;SDS011;1879;45.876;12.300;2022-12-07T12:09:33;2.97;;;2.77;;
3726;SDS011;1879;45.876;12.300;2022-12-07T12:12:10;2.80;;;2.60;;
3726;SDS011;1879;45.876;12.300;2022-12-07T12:14:55;6.57;;;5.97;;
3726;SDS011;1879;45.876;12.300;2022-12-07T12:17:40;4.23;;;3.93;;
3726;SDS011;1879;45.876;12.300;2022-12-07T12:20:27;3.77;;;3.43;;
3726;SDS011;1879;45.876;12.300;2022-12-07T12:22:58;2.73;;;2.53;;
3726;SDS011;1879;45.876;12.300;2022-12-07T12:25:34;2.77;;;2.57;;
3726;SDS011;1879;45.876;12.300;2022-12-07T12:28:05;3.13;;;2.83;;
3726;SDS011;1879;45.876;12.300;2022-12-07T12:30:33;2.53;;;2.40;;
3726;SDS011;1879;45.876;12.300;2022-12-07T12:33:03;2.83;;;2.63;;
3726;SDS011;1879;45.876;12.300;2022-12-07T12:35:35;2.97;;;2.77;;
3726;SDS011;1879;45.876;12.300;2022-12-07T12:40:56;2.50;;;2.30;;
3726;SDS011;1879;45.876;12.300;2022-12-07T12:46:37;3.13;;;2.83;;
3726;SDS011;1879;45.876;12.300;2022-12-07T12:52:01;3.10;;;2.80;;
3726;SDS011;1879;45.876;12.300;2022-12-07T12:55:18;2.57;;;2.37;;
3726;SDS011;1879;45.876;12.300;2022-12-07T13:10:33;3.50;;;3.20;;
3726;SDS011;1879;45.876;12.300;2022-12-07T13:13:05;3.90;;;3.17;;
3726;SDS011;1879;45.876;12.300;2022-12-07T13:22:39;3.90;;;3.53;;
3726;SDS011;1879;45.876;12.300;2022-12-07T13:25:10;3.70;;;3.40;;
3726;SDS011;1879;45.876;12.300;2022-12-07T13:27:41;3.73;;;3.40;;
3726;SDS011;1879;45.876;12.300;2022-12-07T13:30:12;3.90;;;3.50;;
3726;SDS011;1879;45.876;12.300;2022-12-07T13:32:41;4.03;;;3.70;;
3726;SDS011;1879;45.876;12.300;2022-12-07T13:35:29;3.73;;;3.43;;
3726;SDS011;1879;45.876;12.300;2022-12-07T13:37:58;5.00;;;4.20;;
3726;SDS011;1879;45.876;12.300;2022-12-07T13:40:27;4.13;;;3.70;;
3726;SDS011;1879;45.876;12.300;2022-12-07T13:42:58;4.60;;;4.30;;
3726;SDS011;1879;45.876;12.300;2022-12-07T13:45:31;4.20;;;3.90;;
3726;SDS011;1879;45.876;12.300;2022-12-07T13:48:15;4.23;;;3.73;;
3726;SDS011;1879;45.876;12.300;2022-12-07T13:50:52;4.73;;;4.33;;
3726;SDS011;1879;45.876;12.300;2022-12-07T13:53:21;4.00;;;3.60;;
3726;SDS011;1879;45.876;12.300;2022-12-07T13:55:49;4.37;;;4.07;;
3726;SDS011;1879;45.876;12.300;2022-12-07T13:58:17;4.77;;;4.27;;
3726;SDS011;1879;45.876;12.300;2022-12-07T14:00:44;4.37;;;3.93;;
3726;SDS011;1879;45.876;12.300;2022-12-07T14:03:28;4.53;;;4.13;;
3726;SDS011;1879;45.876;12.300;2022-12-07T14:06:05;3.50;;;3.20;;
3726;SDS011;1879;45.876;12.300;2022-12-07T14:08:42;5.53;;;3.10;;
3726;SDS011;1879;45.876;12.300;2022-12-07T14:11:12;4.33;;;4.00;;
3726;SDS011;1879;45.876;12.300;2022-12-07T14:13:49;4.40;;;3.97;;
3726;SDS011;1879;45.876;12.300;2022-12-07T14:16:23;5.50;;;4.00;;
3726;SDS011;1879;45.876;12.300;2022-12-07T14:18:54;3.30;;;3.00;;
3726;SDS011;1879;45.876;12.300;2022-12-07T14:21:22;5.47;;;3.13;;
3726;SDS011;1879;45.876;12.300;2022-12-07T14:24:10;4.60;;;3.13;;
3726;SDS011;1879;45.876;12.300;2022-12-07T14:26:41;3.50;;;3.20;;
3726;SDS011;1879;45.876;12.300;2022-12-07T14:32:17;3.40;;;3.10;;
3726;SDS011;1879;45.876;12.300;2022-12-07T14:35:00;3.27;;;2.97;;
3726;SDS011;1879;45.876;12.300;2022-12-07T14:37:29;3.83;;;3.33;;
3726;SDS011;1879;45.876;12.300;2022-12-07T14:39:56;3.67;;;3.37;;
3726;SDS011;1879;45.876;12.300;2022-12-07T14:42:24;3.77;;;3.47;;
3726;SDS011;1879;45.876;12.300;2022-12-07T14:44:55;4.13;;;3.70;;
3726;SDS011;1879;45.876;12.300;2022-12-07T14:47:23;5.93;;;5.33;;
3726;SDS011;1879;45.876;12.300;2022-12-07T14:49:50;4.90;;;4.40;;
3726;SDS011;1879;45.876;12.300;2022-12-07T14:52:18;4.70;;;4.30;;
3726;SDS011;1879;45.876;12.300;2022-12-07T14:54:48;4.60;;;3.90;;
3726;SDS011;1879;45.876;12.300;2022-12-07T14:57:15;4.70;;;4.30;;
3726;SDS011;1879;45.876;12.300;2022-12-07T14:59:42;4.90;;;4.40;;
3726;SDS011;1879;45.876;12.300;2022-12-07T15:02:11;7.83;;;4.80;;
3726;SDS011;1879;45.876;12.300;2022-12-07T15:04:39;7.10;;;5.20;;
3726;SDS011;1879;45.876;12.300;2022-12-07T15:07:10;6.10;;;5.60;;
3726;SDS011;1879;45.876;12.300;2022-12-07T15:09:44;5.30;;;4.90;;
3726;SDS011;1879;45.876;12.300;2022-12-07T15:12:11;6.67;;;6.07;;
3726;SDS011;1879;45.876;12.300;2022-12-07T15:14:38;9.37;;;8.47;;
3726;SDS011;1879;45.876;12.300;2022-12-07T15:17:04;10.67;;;9.63;;
3726;SDS011;1879;45.876;12.300;2022-12-07T15:19:33;10.33;;;9.20;;
3726;SDS011;1879;45.876;12.300;2022-12-07T15:22:00;8.80;;;7.90;;
3726;SDS011;1879;45.876;12.300;2022-12-07T15:24:27;9.80;;;8.90;;
3726;SDS011;1879;45.876;12.300;2022-12-07T15:26:54;11.13;;;9.53;;
3726;SDS011;1879;45.876;12.300;2022-12-07T15:29:21;9.67;;;8.77;;
3726;SDS011;1879;45.876;12.300;2022-12-07T15:31:48;11.13;;;9.70;;
3726;SDS011;1879;45.876;12.300;2022-12-07T15:34:15;11.47;;;9.43;;
3726;SDS011;1879;45.876;12.300;2022-12-07T15:36:45;14.20;;;11.80;;
3726;SDS011;1879;45.876;12.300;2022-12-07T15:39:12;24.73;;;18.97;;
3726;SDS011;1879;45.876;12.300;2022-12-07T15:41:39;42.23;;;29.87;;
3726;SDS011;1879;45.876;12.300;2022-12-07T15:44:06;41.70;;;30.83;;
3726;SDS011;1879;45.876;12.300;2022-12-07T15:46:52;44.00;;;30.40;;
3726;SDS011;1879;45.876;12.300;2022-12-07T15:49:19;35.23;;;29.00;;
3726;SDS011;1879;45.876;12.300;2022-12-07T15:51:47;27.97;;;19.43;;
3726;SDS011;1879;45.876;12.300;2022-12-07T15:54:16;28.47;;;20.80;;
3726;SDS011;1879;45.876;12.300;2022-12-07T15:56:46;22.10;;;16.80;;